sensor_id;sensor_type;location;lat;lon;timestamp;P1;P2;P0
44674;PMS5003;30388;52.038;-1.478;2022-12-08T00:01:50;16;12;
44674;PMS5003;30388;52.038;-1.478;2022-12-08T00:04:17;14;14;
44674;PMS5003;30388;52.038;-1.478;2022-12-08T00:06:44;16;15;
44674;PMS5003;30388;52.038;-1.478;2022-12-08T00:09:12;14;14;
44674;PMS5003;30388;52.038;-1.478;2022-12-08T00:11:41;11;7;
44674;PMS5003;30388;52.038;-1.478;2022-12-08T00:14:09;11;11;
44674;PMS5003;30388;52.038;-1.478;2022-12-08T00:16:36;12;12;
44674;PMS5003;30388;52.038;-1.478;2022-12-08T00:19:03;10;6;
44674;PMS5003;30388;52.038;-1.478;2022-12-08T00:21:31;6;5;
44674;PMS5003;30388;52.038;-1.478;2022-12-08T00:23:58;7;5;
44674;PMS5003;30388;52.038;-1.478;2022-12-08T00:26:26;11;11;
44674;PMS5003;30388;52.038;-1.478;2022-12-08T00:28:53;19;19;
44674;PMS5003;30388;52.038;-1.478;2022-12-08T00:31:20;20;20;
44674;PMS5003;30388;52.038;-1.478;2022-12-08T00:33:48;15;12;
44674;PMS5003;30388;52.038;-1.478;2022-12-08T00:36:15;18;15;
44674;PMS5003;30388;52.038;-1.478;2022-12-08T00:38:42;15;15;
44674;PMS5003;30388;52.038;-1.478;2022-12-08T00:41:11;23;20;
44674;PMS5003;30388;52.038;-1.478;2022-12-08T00:43:41;19;16;
44674;PMS5003;30388;52.038;-1.478;2022-12-08T00:46:08;15;14;
44674;PMS5003;30388;52.038;-1.478;2022-12-08T00:48:36;12;10;
44674;PMS5003;30388;52.038;-1.478;2022-12-08T00:51:03;7;7;
44674;PMS5003;30388;52.038;-1.478;2022-12-08T00:53:31;6;5;
44674;PMS5003;30388;52.038;-1.478;2022-12-08T00:55:58;5;5;
44674;PMS5003;30388;52.038;-1.478;2022-12-08T00:58:25;30;28;
44674;PMS5003;30388;52.038;-1.478;2022-12-08T01:00:52;38;30;
44674;PMS5003;30388;52.038;-1.478;2022-12-08T01:03:19;14;14;
44674;PMS5003;30388;52.038;-1.478;2022-12-08T01:05:46;24;24;
44674;PMS5003;30388;52.038;-1.478;2022-12-08T01:08:13;37;37;
44674;PMS5003;30388;52.038;-1.478;2022-12-08T01:10:40;51;51;
44674;PMS5003;30388;52.038;-1.478;2022-12-08T01:13:07;26;24;
44674;PMS5003;30388;52.038;-1.478;2022-12-08T01:15:35;11;10;
44674;PMS5003;30388;52.038;-1.478;2022-12-08T01:18:04;19;19;
44674;PMS5003;30388;52.038;-1.478;2022-12-08T01:20:31;39;38;
44674;PMS5003;30388;52.038;-1.478;2022-12-08T01:22:58;25;20;
44674;PMS5003;30388;52.038;-1.478;2022-12-08T01:25:25;30;29;
44674;PMS5003;30388;52.038;-1.478;2022-12-08T01:27:53;56;56;
44674;PMS5003;30388;52.038;-1.478;2022-12-08T01:30:20;16;16;
44674;PMS5003;30388;52.038;-1.478;2022-12-08T01:32:47;15;15;
44674;PMS5003;30388;52.038;-1.478;2022-12-08T01:35:14;28;27;
44674;PMS5003;30388;52.038;-1.478;2022-12-08T01:37:41;42;41;
44674;PMS5003;30388;52.038;-1.478;2022-12-08T01:40:09;47;47;
44674;PMS5003;30388;52.038;-1.478;2022-12-08T01:42:36;51;51;
44674;PMS5003;30388;52.038;-1.478;2022-12-08T01:45:04;90;90;
44674;PMS5003;30388;52.038;-1.478;2022-12-08T01:47:35;24;24;
44674;PMS5003;30388;52.038;-1.478;2022-12-08T01:50:08;24;24;
44674;PMS5003;30388;52.038;-1.478;2022-12-08T01:52:39;76;76;
44674;PMS5003;30388;52.038;-1.478;2022-12-08T01:55:13;67;65;
44674;PMS5003;30388;52.038;-1.478;2022-12-08T01:57:46;57;55;
44674;PMS5003;30388;52.038;-1.478;2022-12-08T02:00:18;24;19;
44674;PMS5003;30388;52.038;-1.478;2022-12-08T02:02:50;14;14;
44674;PMS5003;30388;52.038;-1.478;2022-12-08T02:05:23;6;6;
44674;PMS5003;30388;52.038;-1.478;2022-12-08T02:07:53;10;8;
44674;PMS5003;30388;52.038;-1.478;2022-12-08T02:10:22;10;7;
44674;PMS5003;30388;52.038;-1.478;2022-12-08T02:12:52;29;29;
44674;PMS5003;30388;52.038;-1.478;2022-12-08T02:15:29;59;56;
44674;PMS5003;30388;52.038;-1.478;2022-12-08T02:18:07;11;11;
44674;PMS5003;30388;52.038;-1.478;2022-12-08T02:20:46;7;7;
44674;PMS5003;30388;52.038;-1.478;2022-12-08T02:23:24;6;6;
44674;PMS5003;30388;52.038;-1.478;2022-12-08T02:27:45;6;5;
44674;PMS5003;30388;52.038;-1.478;2022-12-08T02:30:24;6;6;
44674;PMS5003;30388;52.038;-1.478;2022-12-08T02:33:19;6;6;
44674;PMS5003;30388;52.038;-1.478;2022-12-08T02:35:57;9;7;
44674;PMS5003;30388;52.038;-1.478;2022-12-08T02:38:34;9;6;
44674;PMS5003;30388;52.038;-1.478;2022-12-08T02:41:15;5;5;
44674;PMS5003;30388;52.038;-1.478;2022-12-08T02:43:50;10;6;
44674;PMS5003;30388;52.038;-1.478;2022-12-08T02:46:23;10;7;
44674;PMS5003;30388;52.038;-1.478;2022-12-08T02:48:56;7;6;
44674;PMS5003;30388;52.038;-1.478;2022-12-08T02:51:24;7;7;
44674;PMS5003;30388;52.038;-1.478;2022-12-08T02:53:52;7;7;
44674;PMS5003;30388;52.038;-1.478;2022-12-08T02:56:24;6;6;
44674;PMS5003;30388;52.038;-1.478;2022-12-08T02:59:09;7;6;
44674;PMS5003;30388;52.038;-1.478;2022-12-08T03:01:50;2;2;
44674;PMS5003;30388;52.038;-1.478;2022-12-08T03:04:31;9;5;
44674;PMS5003;30388;52.038;-1.478;2022-12-08T03:07:04;6;3;
44674;PMS5003;30388;52.038;-1.478;2022-12-08T03:09:37;5;5;
44674;PMS5003;30388;52.038;-1.478;2022-12-08T03:12:10;6;6;
44674;PMS5003;30388;52.038;-1.478;2022-12-08T03:14:44;2;2;
44674;PMS5003;30388;52.038;-1.478;2022-12-08T03:17:15;3;2;
44674;PMS5003;30388;52.038;-1.478;2022-12-08T03:19:44;7;3;
44674;PMS5003;30388;52.038;-1.478;2022-12-08T03:22:13;6;5;
44674;PMS5003;30388;52.038;-1.478;2022-12-08T03:24:44;9;9;
44674;PMS5003;30388;52.038;-1.478;2022-12-08T03:27:13;11;11;
44674;PMS5003;30388;52.038;-1.478;2022-12-08T03:29:42;11;10;
44674;PMS5003;30388;52.038;-1.478;2022-12-08T03:32:12;7;7;
44674;PMS5003;30388;52.038;-1.478;2022-12-08T03:34:47;23;23;
44674;PMS5003;30388;52.038;-1.478;2022-12-08T03:37:16;9;9;
44674;PMS5003;30388;52.038;-1.478;2022-12-08T03:39:43;7;7;
44674;PMS5003;30388;52.038;-1.478;2022-12-08T03:42:10;25;25;
44674;PMS5003;30388;52.038;-1.478;2022-12-08T03:44:37;10;10;
44674;PMS5003;30388;52.038;-1.478;2022-12-08T03:47:05;6;3;
44674;PMS5003;30388;52.038;-1.478;2022-12-08T03:49:32;6;5;
44674;PMS5003;30388;52.038;-1.478;2022-12-08T03:52:00;2;2;
44674;PMS5003;30388;52.038;-1.478;2022-12-08T03:54:27;1;1;
44674;PMS5003;30388;52.038;-1.478;2022-12-08T03:56:55;2;2;
44674;PMS5003;30388;52.038;-1.478;2022-12-08T03:59:22;1;1;
44674;PMS5003;30388;52.038;-1.478;2022-12-08T04:01:50;2;2;
44674;PMS5003;30388;52.038;-1.478;2022-12-08T04:04:17;2;2;
44674;PMS5003;30388;52.038;-1.478;2022-12-08T04:06:44;3;1;
44674;PMS5003;30388;52.038;-1.478;2022-12-08T04:09:13;3;2;
44674;PMS5003;30388;52.038;-1.478;2022-12-08T04:11:40;5;3;
44674;PMS5003;30388;52.038;-1.478;2022-12-08T04:14:07;3;2;
44674;PMS5003;30388;52.038;-1.478;2022-12-08T04:16:35;7;7;
44674;PMS5003;30388;52.038;-1.478;2022-12-08T04:19:02;12;12;
44674;PMS5003;30388;52.038;-1.478;2022-12-08T04:21:30;8;6;
44674;PMS5003;30388;52.038;-1.478;2022-12-08T04:23:57;7;7;
44674;PMS5003;30388;52.038;-1.478;2022-12-08T04:26:24;12;11;
44674;PMS5003;30388;52.038;-1.478;2022-12-08T04:28:52;14;10;
44674;PMS5003;30388;52.038;-1.478;2022-12-08T04:31:20;10;10;
44674;PMS5003;30388;52.038;-1.478;2022-12-08T04:33:47;16;16;
44674;PMS5003;30388;52.038;-1.478;2022-12-08T04:36:14;57;55;
44674;PMS5003;30388;52.038;-1.478;2022-12-08T04:38:41;23;23;
44674;PMS5003;30388;52.038;-1.478;2022-12-08T04:41:08;16;16;
44674;PMS5003;30388;52.038;-1.478;2022-12-08T04:43:35;32;27;
44674;PMS5003;30388;52.038;-1.478;2022-12-08T04:46:04;34;34;
44674;PMS5003;30388;52.038;-1.478;2022-12-08T04:48:32;12;12;
44674;PMS5003;30388;52.038;-1.478;2022-12-08T04:51:00;70;70;
44674;PMS5003;30388;52.038;-1.478;2022-12-08T04:53:27;17;15;
44674;PMS5003;30388;52.038;-1.478;2022-12-08T04:55:55;23;23;
44674;PMS5003;30388;52.038;-1.478;2022-12-08T04:58:22;24;24;
44674;PMS5003;30388;52.038;-1.478;2022-12-08T05:00:49;51;47;
44674;PMS5003;30388;52.038;-1.478;2022-12-08T05:03:16;56;51;
44674;PMS5003;30388;52.038;-1.478;2022-12-08T05:05:43;18;15;
44674;PMS5003;30388;52.038;-1.478;2022-12-08T05:08:11;20;18;
44674;PMS5003;30388;52.038;-1.478;2022-12-08T05:10:38;27;27;
44674;PMS5003;30388;52.038;-1.478;2022-12-08T05:13:05;2;2;
44674;PMS5003;30388;52.038;-1.478;2022-12-08T05:15:33;1;1;
44674;PMS5003;30388;52.038;-1.478;2022-12-08T05:18:00;1;1;
44674;PMS5003;30388;52.038;-1.478;2022-12-08T05:20:28;3;1;
44674;PMS5003;30388;52.038;-1.478;2022-12-08T05:22:55;5;2;
44674;PMS5003;30388;52.038;-1.478;2022-12-08T05:25:23;3;2;
44674;PMS5003;30388;52.038;-1.478;2022-12-08T05:27:50;2;2;
44674;PMS5003;30388;52.038;-1.478;2022-12-08T05:30:18;5;5;
44674;PMS5003;30388;52.038;-1.478;2022-12-08T05:32:45;6;3;
44674;PMS5003;30388;52.038;-1.478;2022-12-08T05:35:13;3;2;
44674;PMS5003;30388;52.038;-1.478;2022-12-08T05:37:40;2;2;
44674;PMS5003;30388;52.038;-1.478;2022-12-08T05:40:08;5;5;
44674;PMS5003;30388;52.038;-1.478;2022-12-08T05:42:36;9;5;
44674;PMS5003;30388;52.038;-1.478;2022-12-08T05:45:04;5;5;
44674;PMS5003;30388;52.038;-1.478;2022-12-08T05:47:31;9;9;
44674;PMS5003;30388;52.038;-1.478;2022-12-08T05:49:59;6;5;
44674;PMS5003;30388;52.038;-1.478;2022-12-08T05:52:26;6;5;
44674;PMS5003;30388;52.038;-1.478;2022-12-08T05:54:53;18;18;
44674;PMS5003;30388;52.038;-1.478;2022-12-08T05:57:21;13;7;
44674;PMS5003;30388;52.038;-1.478;2022-12-08T05:59:48;10;9;
44674;PMS5003;30388;52.038;-1.478;2022-12-08T06:02:15;7;7;
44674;PMS5003;30388;52.038;-1.478;2022-12-08T06:04:42;10;6;
44674;PMS5003;30388;52.038;-1.478;2022-12-08T06:07:09;5;1;
44674;PMS5003;30388;52.038;-1.478;2022-12-08T06:09:37;2;2;
44674;PMS5003;30388;52.038;-1.478;2022-12-08T06:12:04;6;2;
44674;PMS5003;30388;52.038;-1.478;2022-12-08T06:14:32;6;5;
44674;PMS5003;30388;52.038;-1.478;2022-12-08T06:17:00;3;1;
44674;PMS5003;30388;52.038;-1.478;2022-12-08T06:19:27;9;7;
44674;PMS5003;30388;52.038;-1.478;2022-12-08T06:21:55;5;5;
44674;PMS5003;30388;52.038;-1.478;2022-12-08T06:24:22;6;3;
44674;PMS5003;30388;52.038;-1.478;2022-12-08T06:26:50;3;3;
44674;PMS5003;30388;52.038;-1.478;2022-12-08T06:29:18;5;3;
44674;PMS5003;30388;52.038;-1.478;2022-12-08T06:31:45;7;3;
44674;PMS5003;30388;52.038;-1.478;2022-12-08T06:34:14;5;2;
44674;PMS5003;30388;52.038;-1.478;2022-12-08T06:36:41;13;11;
44674;PMS5003;30388;52.038;-1.478;2022-12-08T06:39:08;10;10;
44674;PMS5003;30388;52.038;-1.478;2022-12-08T06:41:35;7;7;
44674;PMS5003;30388;52.038;-1.478;2022-12-08T06:44:03;6;6;
44674;PMS5003;30388;52.038;-1.478;2022-12-08T06:46:30;5;5;
44674;PMS5003;30388;52.038;-1.478;2022-12-08T06:48:57;18;16;
44674;PMS5003;30388;52.038;-1.478;2022-12-08T06:51:24;20;18;
44674;PMS5003;30388;52.038;-1.478;2022-12-08T06:53:51;6;3;
44674;PMS5003;30388;52.038;-1.478;2022-12-08T06:56:19;6;6;
44674;PMS5003;30388;52.038;-1.478;2022-12-08T06:58:46;6;5;
44674;PMS5003;30388;52.038;-1.478;2022-12-08T07:01:14;5;3;
44674;PMS5003;30388;52.038;-1.478;2022-12-08T07:03:40;9;1;
44674;PMS5003;30388;52.038;-1.478;2022-12-08T07:06:08;10;7;
44674;PMS5003;30388;52.038;-1.478;2022-12-08T07:08:41;15;14;
44674;PMS5003;30388;52.038;-1.478;2022-12-08T07:11:08;19;16;
44674;PMS5003;30388;52.038;-1.478;2022-12-08T07:13:36;5;2;
44674;PMS5003;30388;52.038;-1.478;2022-12-08T07:16:04;18;16;
44674;PMS5003;30388;52.038;-1.478;2022-12-08T07:18:33;16;16;
44674;PMS5003;30388;52.038;-1.478;2022-12-08T07:21:02;27;27;
44674;PMS5003;30388;52.038;-1.478;2022-12-08T07:23:31;12;12;
44674;PMS5003;30388;52.038;-1.478;2022-12-08T07:25:59;11;11;
44674;PMS5003;30388;52.038;-1.478;2022-12-08T07:28:28;21;21;
44674;PMS5003;30388;52.038;-1.478;2022-12-08T07:30:56;10;10;
44674;PMS5003;30388;52.038;-1.478;2022-12-08T07:33:23;12;10;
44674;PMS5003;30388;52.038;-1.478;2022-12-08T07:35:54;11;10;
44674;PMS5003;30388;52.038;-1.478;2022-12-08T07:38:22;11;8;
44674;PMS5003;30388;52.038;-1.478;2022-12-08T07:40:51;7;7;
44674;PMS5003;30388;52.038;-1.478;2022-12-08T07:43:19;7;6;
44674;PMS5003;30388;52.038;-1.478;2022-12-08T07:45:46;10;5;
44674;PMS5003;30388;52.038;-1.478;2022-12-08T07:48:14;6;6;
44674;PMS5003;30388;52.038;-1.478;2022-12-08T07:50:41;5;5;
44674;PMS5003;30388;52.038;-1.478;2022-12-08T07:53:09;7;7;
44674;PMS5003;30388;52.038;-1.478;2022-12-08T07:55:37;10;10;
44674;PMS5003;30388;52.038;-1.478;2022-12-08T07:58:05;15;11;
44674;PMS5003;30388;52.038;-1.478;2022-12-08T08:00:32;13;10;
44674;PMS5003;30388;52.038;-1.478;2022-12-08T08:02:59;51;49;
44674;PMS5003;30388;52.038;-1.478;2022-12-08T08:05:26;5;5;
44674;PMS5003;30388;52.038;-1.478;2022-12-08T08:07:53;7;7;
44674;PMS5003;30388;52.038;-1.478;2022-12-08T08:10:20;7;7;
44674;PMS5003;30388;52.038;-1.478;2022-12-08T08:12:47;7;5;
44674;PMS5003;30388;52.038;-1.478;2022-12-08T08:15:14;7;5;
44674;PMS5003;30388;52.038;-1.478;2022-12-08T08:17:41;7;5;
44674;PMS5003;30388;52.038;-1.478;2022-12-08T08:20:08;9;5;
44674;PMS5003;30388;52.038;-1.478;2022-12-08T08:22:36;7;5;
44674;PMS5003;30388;52.038;-1.478;2022-12-08T08:25:04;3;3;
44674;PMS5003;30388;52.038;-1.478;2022-12-08T08:27:31;5;5;
44674;PMS5003;30388;52.038;-1.478;2022-12-08T08:29:58;5;5;
44674;PMS5003;30388;52.038;-1.478;2022-12-08T08:32:24;7;5;
44674;PMS5003;30388;52.038;-1.478;2022-12-08T08:34:51;9;9;
44674;PMS5003;30388;52.038;-1.478;2022-12-08T08:37:19;9;6;
44674;PMS5003;30388;52.038;-1.478;2022-12-08T08:39:47;10;5;
44674;PMS5003;30388;52.038;-1.478;2022-12-08T08:42:13;9;6;
44674;PMS5003;30388;52.038;-1.478;2022-12-08T08:44:40;10;10;
44674;PMS5003;30388;52.038;-1.478;2022-12-08T08:47:07;10;5;
44674;PMS5003;30388;52.038;-1.478;2022-12-08T08:49:34;9;5;
44674;PMS5003;30388;52.038;-1.478;2022-12-08T08:52:02;7;6;
44674;PMS5003;30388;52.038;-1.478;2022-12-08T08:54:30;5;5;
44674;PMS5003;30388;52.038;-1.478;2022-12-08T08:56:58;9;6;
44674;PMS5003;30388;52.038;-1.478;2022-12-08T08:59:26;10;6;
44674;PMS5003;30388;52.038;-1.478;2022-12-08T09:01:53;11;11;
44674;PMS5003;30388;52.038;-1.478;2022-12-08T09:04:21;5;5;
44674;PMS5003;30388;52.038;-1.478;2022-12-08T09:06:49;3;3;
44674;PMS5003;30388;52.038;-1.478;2022-12-08T09:09:16;7;6;
44674;PMS5003;30388;52.038;-1.478;2022-12-08T09:11:44;10;6;
44674;PMS5003;30388;52.038;-1.478;2022-12-08T09:14:11;11;7;
44674;PMS5003;30388;52.038;-1.478;2022-12-08T09:16:39;6;5;
44674;PMS5003;30388;52.038;-1.478;2022-12-08T09:19:07;7;5;
44674;PMS5003;30388;52.038;-1.478;2022-12-08T09:21:34;5;5;
44674;PMS5003;30388;52.038;-1.478;2022-12-08T09:24:02;3;3;
44674;PMS5003;30388;52.038;-1.478;2022-12-08T09:26:30;5;5;
44674;PMS5003;30388;52.038;-1.478;2022-12-08T09:28:57;9;3;
44674;PMS5003;30388;52.038;-1.478;2022-12-08T09:31:25;10;6;
44674;PMS5003;30388;52.038;-1.478;2022-12-08T09:33:52;5;5;
44674;PMS5003;30388;52.038;-1.478;2022-12-08T09:36:20;6;5;
44674;PMS5003;30388;52.038;-1.478;2022-12-08T09:38:47;5;5;
44674;PMS5003;30388;52.038;-1.478;2022-12-08T09:41:15;9;6;
44674;PMS5003;30388;52.038;-1.478;2022-12-08T09:43:53;10;6;
44674;PMS5003;30388;52.038;-1.478;2022-12-08T09:46:27;6;6;
44674;PMS5003;30388;52.038;-1.478;2022-12-08T09:48:59;6;6;
44674;PMS5003;30388;52.038;-1.478;2022-12-08T09:51:30;5;5;
44674;PMS5003;30388;52.038;-1.478;2022-12-08T09:54:01;5;5;
44674;PMS5003;30388;52.038;-1.478;2022-12-08T09:56:34;14;9;
44674;PMS5003;30388;52.038;-1.478;2022-12-08T09:59:03;10;9;
44674;PMS5003;30388;52.038;-1.478;2022-12-08T10:01:40;9;7;
44674;PMS5003;30388;52.038;-1.478;2022-12-08T10:04:09;18;9;
44674;PMS5003;30388;52.038;-1.478;2022-12-08T10:06:46;12;7;
44674;PMS5003;30388;52.038;-1.478;2022-12-08T10:09:23;10;9;
44674;PMS5003;30388;52.038;-1.478;2022-12-08T10:12:02;14;10;
44674;PMS5003;30388;52.038;-1.478;2022-12-08T10:14:37;14;7;
44674;PMS5003;30388;52.038;-1.478;2022-12-08T10:17:11;6;5;
44674;PMS5003;30388;52.038;-1.478;2022-12-08T10:19:43;9;5;
44674;PMS5003;30388;52.038;-1.478;2022-12-08T10:22:11;5;5;
44674;PMS5003;30388;52.038;-1.478;2022-12-08T10:24:47;9;6;
44674;PMS5003;30388;52.038;-1.478;2022-12-08T10:27:19;16;15;
44674;PMS5003;30388;52.038;-1.478;2022-12-08T10:29:47;16;14;
44674;PMS5003;30388;52.038;-1.478;2022-12-08T10:32:16;21;21;
44674;PMS5003;30388;52.038;-1.478;2022-12-08T10:35:03;38;38;
44674;PMS5003;30388;52.038;-1.478;2022-12-08T10:37:33;38;38;
44674;PMS5003;30388;52.038;-1.478;2022-12-08T10:40:04;40;40;
44674;PMS5003;30388;52.038;-1.478;2022-12-08T10:42:36;44;40;
44674;PMS5003;30388;52.038;-1.478;2022-12-08T10:45:17;41;34;
44674;PMS5003;30388;52.038;-1.478;2022-12-08T10:47:55;39;39;
44674;PMS5003;30388;52.038;-1.478;2022-12-08T10:50:27;37;37;
44674;PMS5003;30388;52.038;-1.478;2022-12-08T10:52:58;15;15;
44674;PMS5003;30388;52.038;-1.478;2022-12-08T10:55:28;10;7;
44674;PMS5003;30388;52.038;-1.478;2022-12-08T10:58:04;21;21;
44674;PMS5003;30388;52.038;-1.478;2022-12-08T11:00:31;12;12;
44674;PMS5003;30388;52.038;-1.478;2022-12-08T11:03:04;6;5;
44674;PMS5003;30388;52.038;-1.478;2022-12-08T11:05:32;7;5;
44674;PMS5003;30388;52.038;-1.478;2022-12-08T11:08:01;4;4;
44674;PMS5003;30388;52.038;-1.478;2022-12-08T11:10:32;7;4;
44674;PMS5003;30388;52.038;-1.478;2022-12-08T11:13:02;8;6;
44674;PMS5003;30388;52.038;-1.478;2022-12-08T11:15:32;10;6;
44674;PMS5003;30388;52.038;-1.478;2022-12-08T11:18:07;9;8;
44674;PMS5003;30388;52.038;-1.478;2022-12-08T11:20:46;8;7;
44674;PMS5003;30388;52.038;-1.478;2022-12-08T11:23:18;6;3;
44674;PMS5003;30388;52.038;-1.478;2022-12-08T11:25:47;4;4;
44674;PMS5003;30388;52.038;-1.478;2022-12-08T11:28:16;6;6;
44674;PMS5003;30388;52.038;-1.478;2022-12-08T11:30:49;6;6;
44674;PMS5003;30388;52.038;-1.478;2022-12-08T11:33:23;8;6;
44674;PMS5003;30388;52.038;-1.478;2022-12-08T11:35:53;5;5;
44674;PMS5003;30388;52.038;-1.478;2022-12-08T11:38:26;20;12;
44674;PMS5003;30388;52.038;-1.478;2022-12-08T11:40:54;76;76;
44674;PMS5003;30388;52.038;-1.478;2022-12-08T11:43:33;29;27;
44674;PMS5003;30388;52.038;-1.478;2022-12-08T11:46:09;55;55;
44674;PMS5003;30388;52.038;-1.478;2022-12-08T11:48:42;16;15;
44674;PMS5003;30388;52.038;-1.478;2022-12-08T11:51:16;49;44;
44674;PMS5003;30388;52.038;-1.478;2022-12-08T11:53:50;53;53;
44674;PMS5003;30388;52.038;-1.478;2022-12-08T11:56:31;40;39;
44674;PMS5003;30388;52.038;-1.478;2022-12-08T11:59:00;14;14;
44674;PMS5003;30388;52.038;-1.478;2022-12-08T12:01:33;4;4;
44674;PMS5003;30388;52.038;-1.478;2022-12-08T12:04:04;142;142;
44674;PMS5003;30388;52.038;-1.478;2022-12-08T12:06:49;419;419;
44674;PMS5003;30388;52.038;-1.478;2022-12-08T12:09:29;215;213;
44674;PMS5003;30388;52.038;-1.478;2022-12-08T12:12:10;322;321;
44674;PMS5003;30388;52.038;-1.478;2022-12-08T12:14:56;305;304;
44674;PMS5003;30388;52.038;-1.478;2022-12-08T12:17:42;318;318;
44674;PMS5003;30388;52.038;-1.478;2022-12-08T12:20:15;215;215;
44674;PMS5003;30388;52.038;-1.478;2022-12-08T12:22:47;236;236;
44674;PMS5003;30388;52.038;-1.478;2022-12-08T12:25:20;254;254;
44674;PMS5003;30388;52.038;-1.478;2022-12-08T12:27:49;286;286;
44674;PMS5003;30388;52.038;-1.478;2022-12-08T12:30:22;283;266;
44674;PMS5003;30388;52.038;-1.478;2022-12-08T12:32:51;290;290;
44674;PMS5003;30388;52.038;-1.478;2022-12-08T12:35:26;277;274;
44674;PMS5003;30388;52.038;-1.478;2022-12-08T12:37:59;287;285;
44674;PMS5003;30388;52.038;-1.478;2022-12-08T12:40:34;300;300;
44674;PMS5003;30388;52.038;-1.478;2022-12-08T12:43:12;296;294;
44674;PMS5003;30388;52.038;-1.478;2022-12-08T12:45:55;0;0;
44674;PMS5003;30388;52.038;-1.478;2022-12-08T12:50:10;0;0;
44674;PMS5003;30388;52.038;-1.478;2022-12-08T12:52:39;0;0;
44674;PMS5003;30388;52.038;-1.478;2022-12-08T12:55:18;0;0;
44674;PMS5003;30388;52.038;-1.478;2022-12-08T12:57:52;0;0;
44674;PMS5003;30388;52.038;-1.478;2022-12-08T13:00:22;0;0;
44674;PMS5003;30388;52.038;-1.478;2022-12-08T13:02:50;0;0;
44674;PMS5003;30388;52.038;-1.478;2022-12-08T13:05:20;0;0;
44674;PMS5003;30388;52.038;-1.478;2022-12-08T13:07:51;0;0;
44674;PMS5003;30388;52.038;-1.478;2022-12-08T13:10:24;0;0;
44674;PMS5003;30388;52.038;-1.478;2022-12-08T13:10:26;0;0;
44674;PMS5003;30388;52.038;-1.478;2022-12-08T13:13:06;0;0;
44674;PMS5003;30388;52.038;-1.478;2022-12-08T13:15:46;0;0;
44674;PMS5003;30388;52.038;-1.478;2022-12-08T13:18:17;0;0;
44674;PMS5003;30388;52.038;-1.478;2022-12-08T13:20:47;0;0;
44674;PMS5003;30388;52.038;-1.478;2022-12-08T13:23:25;404;403;
44674;PMS5003;30388;52.038;-1.478;2022-12-08T13:26:26;449;449;
44674;PMS5003;30388;52.038;-1.478;2022-12-08T13:29:26;664;663;
44674;PMS5003;30388;52.038;-1.478;2022-12-08T13:31:54;416;408;
44674;PMS5003;30388;52.038;-1.478;2022-12-08T13:34:26;305;305;
44674;PMS5003;30388;52.038;-1.478;2022-12-08T13:37:01;304;290;
44674;PMS5003;30388;52.038;-1.478;2022-12-08T13:39:43;247;247;
44674;PMS5003;30388;52.038;-1.478;2022-12-08T13:42:18;252;250;
44674;PMS5003;30388;52.038;-1.478;2022-12-08T13:44:51;221;221;
44674;PMS5003;30388;52.038;-1.478;2022-12-08T13:47:23;245;245;
44674;PMS5003;30388;52.038;-1.478;2022-12-08T13:49:57;268;267;
44674;PMS5003;30388;52.038;-1.478;2022-12-08T13:52:31;244;244;
44674;PMS5003;30388;52.038;-1.478;2022-12-08T13:55:02;272;269;
44674;PMS5003;30388;52.038;-1.478;2022-12-08T13:57:32;264;264;
44674;PMS5003;30388;52.038;-1.478;2022-12-08T14:00:03;231;230;
44674;PMS5003;30388;52.038;-1.478;2022-12-08T14:02:33;270;269;
44674;PMS5003;30388;52.038;-1.478;2022-12-08T14:05:03;268;268;
44674;PMS5003;30388;52.038;-1.478;2022-12-08T14:07:31;233;233;
44674;PMS5003;30388;52.038;-1.478;2022-12-08T14:09:59;295;293;
44674;PMS5003;30388;52.038;-1.478;2022-12-08T14:12:28;238;237;
44674;PMS5003;30388;52.038;-1.478;2022-12-08T14:14:57;263;262;
44674;PMS5003;30388;52.038;-1.478;2022-12-08T14:17:27;253;253;
44674;PMS5003;30388;52.038;-1.478;2022-12-08T14:19:54;236;236;
44674;PMS5003;30388;52.038;-1.478;2022-12-08T14:22:23;243;243;
44674;PMS5003;30388;52.038;-1.478;2022-12-08T14:24:51;263;263;
44674;PMS5003;30388;52.038;-1.478;2022-12-08T14:27:20;230;230;
44674;PMS5003;30388;52.038;-1.478;2022-12-08T14:29:51;235;234;
44674;PMS5003;30388;52.038;-1.478;2022-12-08T14:32:23;248;247;
44674;PMS5003;30388;52.038;-1.478;2022-12-08T14:34:53;231;231;
44674;PMS5003;30388;52.038;-1.478;2022-12-08T14:37:23;212;210;
44674;PMS5003;30388;52.038;-1.478;2022-12-08T14:39:56;216;213;
44674;PMS5003;30388;52.038;-1.478;2022-12-08T14:42:27;174;170;
44674;PMS5003;30388;52.038;-1.478;2022-12-08T14:44:55;276;275;
44674;PMS5003;30388;52.038;-1.478;2022-12-08T14:47:27;271;269;
44674;PMS5003;30388;52.038;-1.478;2022-12-08T14:49:56;326;326;
44674;PMS5003;30388;52.038;-1.478;2022-12-08T14:52:23;260;255;
44674;PMS5003;30388;52.038;-1.478;2022-12-08T14:54:51;212;210;
44674;PMS5003;30388;52.038;-1.478;2022-12-08T14:57:19;232;228;
44674;PMS5003;30388;52.038;-1.478;2022-12-08T14:59:47;236;228;
44674;PMS5003;30388;52.038;-1.478;2022-12-08T15:02:30;200;200;
44674;PMS5003;30388;52.038;-1.478;2022-12-08T15:04:59;223;223;
44674;PMS5003;30388;52.038;-1.478;2022-12-08T15:07:31;294;292;
44674;PMS5003;30388;52.038;-1.478;2022-12-08T15:10:17;270;269;
44674;PMS5003;30388;52.038;-1.478;2022-12-08T15:12:57;250;245;
44674;PMS5003;30388;52.038;-1.478;2022-12-08T15:15:27;299;299;
44674;PMS5003;30388;52.038;-1.478;2022-12-08T15:17:57;315;314;
44674;PMS5003;30388;52.038;-1.478;2022-12-08T15:20:31;118;116;
44674;PMS5003;30388;52.038;-1.478;2022-12-08T15:23:09;50;47;
44674;PMS5003;30388;52.038;-1.478;2022-12-08T15:25:45;72;68;
44674;PMS5003;30388;52.038;-1.478;2022-12-08T15:28:13;63;63;
44674;PMS5003;30388;52.038;-1.478;2022-12-08T15:30:42;70;68;
44674;PMS5003;30388;52.038;-1.478;2022-12-08T15:33:09;50;50;
44674;PMS5003;30388;52.038;-1.478;2022-12-08T15:35:36;31;28;
44674;PMS5003;30388;52.038;-1.478;2022-12-08T15:38:04;56;56;
44674;PMS5003;30388;52.038;-1.478;2022-12-08T15:40:31;41;41;
44674;PMS5003;30388;52.038;-1.478;2022-12-08T15:42:59;72;72;
44674;PMS5003;30388;52.038;-1.478;2022-12-08T15:45:27;68;67;
44674;PMS5003;30388;52.038;-1.478;2022-12-08T15:47:56;42;38;
44674;PMS5003;30388;52.038;-1.478;2022-12-08T15:50:23;111;111;
44674;PMS5003;30388;52.038;-1.478;2022-12-08T15:52:50;225;215;
44674;PMS5003;30388;52.038;-1.478;2022-12-08T15:55:18;200;198;
44674;PMS5003;30388;52.038;-1.478;2022-12-08T15:57:47;180;176;
44674;PMS5003;30388;52.038;-1.478;2022-12-08T16:00:34;47;45;
44674;PMS5003;30388;52.038;-1.478;2022-12-08T16:03:02;126;126;
44674;PMS5003;30388;52.038;-1.478;2022-12-08T16:05:30;144;141;
44674;PMS5003;30388;52.038;-1.478;2022-12-08T16:07:57;35;33;
44674;PMS5003;30388;52.038;-1.478;2022-12-08T16:10:25;28;27;
44674;PMS5003;30388;52.038;-1.478;2022-12-08T16:12:53;60;56;
44674;PMS5003;30388;52.038;-1.478;2022-12-08T16:15:20;21;21;
44674;PMS5003;30388;52.038;-1.478;2022-12-08T16:17:47;17;16;
44674;PMS5003;30388;52.038;-1.478;2022-12-08T16:20:15;13;11;
44674;PMS5003;30388;52.038;-1.478;2022-12-08T16:22:43;13;12;
44674;PMS5003;30388;52.038;-1.478;2022-12-08T16:25:11;11;8;
44674;PMS5003;30388;52.038;-1.478;2022-12-08T16:27:38;8;6;
44674;PMS5003;30388;52.038;-1.478;2022-12-08T16:30:06;10;5;
44674;PMS5003;30388;52.038;-1.478;2022-12-08T16:32:39;8;8;